Time;durP1;ratioP1;P1;durP2;ratioP2;P2;SDS_P1;SDS_P2;PMS_P1;PMS_P2;Temp;Humidity;BMP_temperature;BMP_pressure;BME280_temperature;BME280_humidity;BME280_pressure;Samples;Min_cycle;Max_cycle;Signal;HPM_P1;HPM_P2
2021/11/03 00:00:05;;;;;;;13.15;10.50;;;;;;;;;;5095851;28;20520;-81
2021/11/03 00:02:31;;;;;;;15.43;11.43;;;;;;;;;;5095936;28;20028;-81
2021/11/03 00:04:57;;;;;;;13.98;10.23;;;;;;;;;;5077837;28;20073;-81
2021/11/03 00:07:23;;;;;;;10.88;8.73;;;;;;;;;;5096008;28;20460;-80
2021/11/03 00:09:52;;;;;;;12.82;10.57;;;;;;;;;;5096045;28;20027;-81
2021/11/03 00:12:18;;;;;;;10.27;8.48;;;;;;;;;;5095933;28;20065;-81
2021/11/03 00:14:44;;;;;;;12.18;8.85;;;;;;;;;;5095761;28;20479;-81
2021/11/03 00:17:15;;;;;;;9.77;8.70;;;;;;;;;;5095797;28;20403;-81
2021/11/03 00:19:43;;;;;;;11.90;8.13;;;;;;;;;;5077480;28;20035;-81
2021/11/03 00:22:29;;;;;;;12.45;9.13;;;;;;;;;;5095575;28;20075;-81
2021/11/03 00:24:55;;;;;;;10.52;8.50;;;;;;;;;;5077512;28;20070;-81
2021/11/03 00:27:22;;;;;;;10.07;8.25;;;;;;;;;;5095448;28;20027;-81
2021/11/03 00:29:48;;;;;;;11.10;8.45;;;;;;;;;;5095823;28;20020;-81
2021/11/03 00:32:16;;;;;;;10.52;7.80;;;;;;;;;;5095478;28;20028;-81
2021/11/03 00:34:42;;;;;;;11.10;8.70;;;;;;;;;;5076609;28;20036;-81
2021/11/03 00:37:16;;;;;;;14.48;11.13;;;;;;;;;;5095365;28;20024;-81
2021/11/03 00:39:43;;;;;;;12.20;10.17;;;;;;;;;;5095340;28;20024;-81
2021/11/03 00:42:11;;;;;;;14.48;11.75;;;;;;;;;;5095308;28;20611;-81
2021/11/03 00:44:40;;;;;;;16.88;12.93;;;;;;;;;;5076995;28;20474;-81
2021/11/03 00:47:19;;;;;;;;;;;;;;;;;;;;;
2021/11/03 00:49:47;;;;;;;14.32;11.48;;;;;;;;;;5095334;28;20382;-81
2021/11/03 00:52:13;;;;;;;14.90;11.35;;;;;;;;;;5095114;28;20032;-81
2021/11/03 00:54:42;;;;;;;13.85;10.93;;;;;;;;;;5095270;28;20028;-81
2021/11/03 00:59:57;;;;;;;12.80;10.00;;;;;;;;;;5053153;28;20483;-81
2021/11/03 01:02:25;;;;;;;13.60;10.93;;;;;;;;;;5094859;28;20020;-81
2021/11/03 01:04:54;;;;;;;16.75;12.70;;;;;;;;;;5094775;28;20036;-81
2021/11/03 01:07:20;;;;;;;15.48;12.43;;;;;;;;;;5076814;28;20072;-81
2021/11/03 01:09:46;;;;;;;16.08;12.10;;;;;;;;;;5094902;28;20016;-81
2021/11/03 01:12:12;;;;;;;14.70;12.65;;;;;;;;;;5094677;28;20027;-81
2021/11/03 01:14:38;;;;;;;16.20;12.32;;;;;;;;;;5094760;28;20065;-81
2021/11/03 01:20:13;;;;;;;19.05;14.88;;;;;;;;;;5080134;28;20046;-81
2021/11/03 01:22:39;;;;;;;26.15;18.67;;;;;;;;;;5076447;28;20111;-81
2021/11/03 01:25:06;;;;;;;27.05;17.15;;;;;;;;;;5094396;28;20048;-81
2021/11/03 01:27:32;;;;;;;27.30;18.13;;;;;;;;;;5094516;28;20020;-81
2021/11/03 01:30:03;;;;;;;26.35;19.45;;;;;;;;;;5094342;28;20021;-81
2021/11/03 01:32:37;;;;;;;21.13;15.38;;;;;;;;;;5094509;28;20022;-81
2021/11/03 01:35:07;;;;;;;16.80;13.73;;;;;;;;;;5094263;28;20024;-81
2021/11/03 01:37:36;;;;;;;22.83;15.32;;;;;;;;;;5094302;28;20051;-81
2021/11/03 01:40:02;;;;;;;17.63;13.10;;;;;;;;;;5075969;28;20028;-81
2021/11/03 01:42:32;;;;;;;15.20;12.00;;;;;;;;;;5076033;28;20039;-81
2021/11/03 01:45:00;;;;;;;15.10;10.27;;;;;;;;;;5094060;28;20028;-81
2021/11/03 01:47:45;;;;;;;15.45;11.20;;;;;;;;;;5093818;28;20040;-81
2021/11/03 01:50:21;;;;;;;14.52;9.82;;;;;;;;;;5075920;28;20074;-81
2021/11/03 01:52:48;;;;;;;12.27;8.48;;;;;;;;;;5093956;28;20051;-81
2021/11/03 01:55:16;;;;;;;15.13;9.70;;;;;;;;;;5076036;28;20517;-81
2021/11/03 01:57:47;;;;;;;12.75;10.07;;;;;;;;;;5094034;28;20444;-81
2021/11/03 02:00:15;;;;;;;11.85;9.23;;;;;;;;;;5093974;28;20016;-81
2021/11/03 02:02:42;;;;;;;10.95;9.25;;;;;;;;;;5075834;28;20057;-81
2021/11/03 02:05:12;;;;;;;16.63;11.32;;;;;;;;;;5093760;28;20103;-81
2021/11/03 02:07:38;;;;;;;28.42;24.88;;;;;;;;;;5093738;28;20020;-81
2021/11/03 02:10:05;;;;;;;23.70;21.20;;;;;;;;;;5075637;28;20022;-81
2021/11/03 02:12:31;;;;;;;16.95;13.55;;;;;;;;;;5093716;28;20027;-81
2021/11/03 02:14:57;;;;;;;15.05;10.63;;;;;;;;;;5093651;28;20383;-81
2021/11/03 02:17:25;;;;;;;14.00;9.77;;;;;;;;;;5093663;28;20429;-81
2021/11/03 02:19:52;;;;;;;12.32;8.95;;;;;;;;;;5075549;28;20387;-81
2021/11/03 02:22:18;;;;;;;18.05;12.60;;;;;;;;;;5093622;28;20020;-81
2021/11/03 02:24:48;;;;;;;16.42;11.20;;;;;;;;;;5093575;28;20028;-80
2021/11/03 02:27:17;;;;;;;12.02;8.35;;;;;;;;;;5093643;28;20074;-81
2021/11/03 02:29:43;;;;;;;12.45;9.15;;;;;;;;;;5075356;28;20540;-80
2021/11/03 02:32:18;;;;;;;14.00;9.95;;;;;;;;;;5093424;28;20411;-80
2021/11/03 02:34:45;;;;;;;13.68;11.00;;;;;;;;;;5075374;28;20471;-80
2021/11/03 02:37:32;;;;;;;12.40;9.45;;;;;;;;;;5075564;28;20460;-81
2021/11/03 02:40:08;;;;;;;11.93;10.55;;;;;;;;;;5075287;28;20086;-80
2021/11/03 02:42:37;;;;;;;19.67;13.00;;;;;;;;;;5093480;28;20028;-80
2021/11/03 02:45:07;;;;;;;17.25;12.98;;;;;;;;;;5093067;28;20482;-81
2021/11/03 02:47:33;;;;;;;17.00;11.13;;;;;;;;;;5093470;28;20024;-80
2021/11/03 02:49:59;;;;;;;16.90;12.18;;;;;;;;;;5093325;28;20024;-81
2021/11/03 02:52:27;;;;;;;17.25;11.75;;;;;;;;;;5093316;28;20024;-80
2021/11/03 02:58:04;;;;;;;20.13;13.23;;;;;;;;;;5014240;28;20062;-80
2021/11/03 03:01:08;;;;;;;;;;;;;;;;;;;;;
2021/11/03 03:03:45;;;;;;;;;;;;;;;;;;;;;
2021/11/03 03:06:14;;;;;;;13.43;10.00;;;;;;;;;;5015444;28;20030;-80
2021/11/03 03:08:40;;;;;;;18.00;11.73;;;;;;;;;;5019174;28;20054;-81
2021/11/03 03:11:08;;;;;;;18.23;11.77;;;;;;;;;;5097103;28;20048;-80
2021/11/03 03:13:34;;;;;;;50.13;27.65;;;;;;;;;;5097012;28;20032;-80
2021/11/03 03:16:01;;;;;;;23.60;15.00;;;;;;;;;;5078759;28;20020;-81
2021/11/03 03:18:27;;;;;;;15.88;10.73;;;;;;;;;;5096913;28;20478;-80
2021/11/03 03:20:53;;;;;;;15.77;11.80;;;;;;;;;;5096974;28;20471;-80
2021/11/03 03:23:19;;;;;;;17.88;11.90;;;;;;;;;;5096785;28;20546;-80
2021/11/03 03:25:46;;;;;;;17.13;11.95;;;;;;;;;;5096575;28;20375;-80
2021/11/03 03:28:15;;;;;;;15.75;11.00;;;;;;;;;;5096811;28;20070;-80
2021/11/03 03:30:41;;;;;;;14.70;11.45;;;;;;;;;;5096652;28;20103;-80
2021/11/03 03:33:07;;;;;;;14.32;10.85;;;;;;;;;;5096662;28;20031;-80
2021/11/03 03:35:34;;;;;;;13.15;10.77;;;;;;;;;;5096710;28;20028;-80
2021/11/03 03:38:00;;;;;;;12.20;9.60;;;;;;;;;;5096521;28;20479;-80
2021/11/03 03:40:29;;;;;;;12.93;9.57;;;;;;;;;;5096562;28;20034;-80
2021/11/03 03:42:57;;;;;;;12.77;9.77;;;;;;;;;;5096300;28;20036;-80
2021/11/03 03:45:23;;;;;;;14.18;10.50;;;;;;;;;;5077855;28;20503;-80
2021/11/03 03:47:50;;;;;;;22.52;16.90;;;;;;;;;;5096350;28;20035;-80
2021/11/03 03:50:16;;;;;;;23.75;15.50;;;;;;;;;;5096227;28;20024;-80
2021/11/03 03:52:42;;;;;;;33.03;18.30;;;;;;;;;;5096314;28;20434;-81
2021/11/03 03:55:11;;;;;;;32.25;17.98;;;;;;;;;;5096516;28;20095;-81
2021/11/03 03:57:38;;;;;;;21.90;14.02;;;;;;;;;;5096238;28;20020;-80
2021/11/03 04:00:09;;;;;;;27.58;16.05;;;;;;;;;;5096128;28;20020;-80
2021/11/03 04:02:35;;;;;;;21.85;14.75;;;;;;;;;;5077840;28;20099;-80
2021/11/03 04:05:03;;;;;;;38.92;16.13;;;;;;;;;;5095887;28;20074;-80
2021/11/03 04:07:30;;;;;;;21.27;14.15;;;;;;;;;;5095501;28;20031;-80
2021/11/03 04:09:56;;;;;;;17.63;12.98;;;;;;;;;;5077077;28;20024;-80
2021/11/03 04:12:22;;;;;;;20.60;14.05;;;;;;;;;;5077740;28;20120;-80
2021/11/03 04:14:48;;;;;;;21.15;13.93;;;;;;;;;;5077554;28;20540;-81
2021/11/03 04:17:14;;;;;;;24.52;16.00;;;;;;;;;;5095933;28;20032;-80
2021/11/03 04:19:40;;;;;;;24.58;16.48;;;;;;;;;;5095745;28;20058;-80
2021/11/03 04:22:09;;;;;;;49.05;23.73;;;;;;;;;;5077394;28;20020;-81
2021/11/03 04:24:35;;;;;;;33.47;21.02;;;;;;;;;;5077451;28;20020;-80
2021/11/03 04:27:02;;;;;;;23.38;16.95;;;;;;;;;;5095459;28;20429;-80
2021/11/03 04:29:30;;;;;;;31.35;20.40;;;;;;;;;;5077421;28;20016;-80
2021/11/03 04:31:56;;;;;;;28.20;20.65;;;;;;;;;;5095385;28;20020;-80
2021/11/03 04:34:48;;;;;;;29.92;19.85;;;;;;;;;;5077125;28;20067;-80
2021/11/03 04:37:29;;;;;;;;;;;;;;;;;;;;;
2021/11/03 04:40:11;;;;;;;;;;;;;;;;;;;;;
2021/11/03 04:46:14;;;;;;;;;;;;;;;;;;;;;
2021/11/03 04:48:43;;;;;;;28.48;14.13;;;;;;;;;;5095207;28;20031;-80
2021/11/03 04:51:11;;;;;;;43.53;15.23;;;;;;;;;;5076920;28;20459;-80
2021/11/03 04:53:40;;;;;;;22.90;11.27;;;;;;;;;;5094909;28;20028;-80
2021/11/03 04:56:09;;;;;;;18.63;10.98;;;;;;;;;;5094822;28;20020;-80
2021/11/03 04:58:38;;;;;;;17.85;10.95;;;;;;;;;;5095070;28;20482;-80
2021/11/03 05:01:07;;;;;;;29.73;13.43;;;;;;;;;;5094637;28;20078;-80
2021/11/03 05:03:40;;;;;;;27.13;13.15;;;;;;;;;;5094975;28;20099;-80
2021/11/03 05:06:07;;;;;;;34.97;14.20;;;;;;;;;;5076596;28;20498;-80
2021/11/03 05:08:33;;;;;;;23.60;13.15;;;;;;;;;;5094749;28;20028;-80
2021/11/03 05:11:00;;;;;;;33.65;12.50;;;;;;;;;;5094825;28;20028;-80
2021/11/03 05:13:26;;;;;;;32.40;13.02;;;;;;;;;;5094681;28;20024;-80
2021/11/03 05:15:52;;;;;;;41.00;25.58;;;;;;;;;;5094683;28;20026;-80
2021/11/03 05:18:21;;;;;;;46.50;28.15;;;;;;;;;;5094615;28;20036;-80
2021/11/03 05:20:54;;;;;;;54.40;25.00;;;;;;;;;;5094176;28;20101;-80
2021/11/03 05:23:30;;;;;;;68.67;32.50;;;;;;;;;;5094497;28;20032;-80
2021/11/03 05:26:04;;;;;;;98.50;54.03;;;;;;;;;;5076097;28;20386;-80
2021/11/03 05:28:30;;;;;;;108.63;51.58;;;;;;;;;;5094154;28;20024;-83
2021/11/03 05:30:56;;;;;;;131.27;73.35;;;;;;;;;;5094360;28;20024;-83
2021/11/03 05:33:22;;;;;;;69.22;39.08;;;;;;;;;;5094400;28;20488;-83
2021/11/03 05:35:51;;;;;;;80.45;34.03;;;;;;;;;;5094150;28;20032;-83
2021/11/03 05:43:59;;;;;;;63.10;35.63;;;;;;;;;;4934431;29;20036;-83
2021/11/03 05:46:31;;;;;;;80.43;23.80;;;;;;;;;;5004476;28;20119;-83
2021/11/03 05:48:58;;;;;;;51.13;20.88;;;;;;;;;;5049275;28;20034;-83
2021/11/03 05:51:26;;;;;;;75.50;19.38;;;;;;;;;;5075778;28;20024;-83
2021/11/03 06:00:07;;;;;;;;;;;;;;;;;;;;;
2021/11/03 06:02:46;;;;;;;;;;;;;;;;;;;;;
2021/11/03 06:05:49;;;;;;;86.57;27.33;;;;;;;;;;5093777;28;20356;-82
2021/11/03 06:08:34;;;;;;;;;;;;;;;;;;;;;
2021/11/03 06:11:01;;;;;;;62.10;21.63;;;;;;;;;;5076844;28;20359;-82
2021/11/03 06:13:32;;;;;;;51.00;19.23;;;;;;;;;;5093702;28;20020;-83
2021/11/03 06:16:01;;;;;;;35.90;18.30;;;;;;;;;;5075429;28;20023;-83
2021/11/03 06:18:29;;;;;;;58.90;21.83;;;;;;;;;;5075187;28;20077;-83
2021/11/03 06:20:58;;;;;;;29.05;17.63;;;;;;;;;;5093657;28;20483;-84
2021/11/03 06:23:27;;;;;;;32.30;13.70;;;;;;;;;;5074739;28;20380;-84
2021/11/03 06:26:06;;;;;;;23.80;13.35;;;;;;;;;;5093283;28;20028;-84
2021/11/03 06:32:17;;;;;;;30.88;14.93;;;;;;;;;;5075013;28;20028;-82
2021/11/03 06:35:05;;;;;;;24.70;15.07;;;;;;;;;;5071820;28;20036;-82
2021/11/03 06:37:39;;;;;;;24.63;14.23;;;;;;;;;;5084844;28;20077;-80
2021/11/03 06:40:19;;;;;;;;;;;;;;;;;;;;;
2021/11/03 06:46:18;;;;;;;28.00;11.90;;;;;;;;;;4998916;28;20041;-81
2021/11/03 06:52:01;;;;;;;15.77;10.85;;;;;;;;;;4976266;28;20111;-80
2021/11/03 06:54:58;;;;;;;;;;;;;;;;;;;;;
2021/11/03 06:57:54;;;;;;;;;;;;;;;;;;;;;
2021/11/03 07:00:41;;;;;;;35.92;21.20;;;;;;;;;;4990002;28;20033;-83
2021/11/03 07:03:40;;;;;;;;;;;;;;;;;;;;;
2021/11/03 07:06:24;;;;;;;;;;;;;;;;;;;;;
2021/11/03 07:12:21;;;;;;;24.85;14.25;;;;;;;;;;4931847;29;20028;-83
2021/11/03 07:14:50;;;;;;;23.38;12.77;;;;;;;;;;4905732;29;20040;-80
2021/11/03 07:17:26;;;;;;;22.02;13.20;;;;;;;;;;4930638;29;20058;-80
2021/11/03 07:22:39;;;;;;;44.47;26.63;;;;;;;;;;4974669;28;20039;-81
2021/11/03 07:25:16;;;;;;;51.08;30.20;;;;;;;;;;5075386;28;20020;-82
2021/11/03 07:27:45;;;;;;;52.28;31.83;;;;;;;;;;5073697;28;20032;-81
2021/11/03 07:30:16;;;;;;;41.50;24.70;;;;;;;;;;5085387;28;20020;-81
2021/11/03 07:32:42;;;;;;;44.47;28.55;;;;;;;;;;5076849;28;20099;-83
2021/11/03 07:35:11;;;;;;;81.38;51.90;;;;;;;;;;5071267;28;20047;-83
2021/11/03 07:37:37;;;;;;;133.05;95.72;;;;;;;;;;5070603;28;20024;-81
2021/11/03 07:40:06;;;;;;;63.13;46.22;;;;;;;;;;5060016;28;20024;-80
2021/11/03 07:42:32;;;;;;;52.53;34.25;;;;;;;;;;5077100;28;20502;-80
2021/11/03 07:45:09;;;;;;;36.05;24.08;;;;;;;;;;5074648;28;20492;-80
2021/11/03 07:47:36;;;;;;;42.13;22.85;;;;;;;;;;5093463;28;20526;-80
2021/11/03 07:50:02;;;;;;;38.58;24.15;;;;;;;;;;5076450;28;20360;-80
2021/11/03 07:52:33;;;;;;;55.83;35.45;;;;;;;;;;5094283;28;20082;-80
2021/11/03 07:55:03;;;;;;;56.30;37.17;;;;;;;;;;5084763;28;20028;-82
2021/11/03 07:57:32;;;;;;;56.83;35.92;;;;;;;;;;5074545;28;20031;-82
2021/11/03 07:59:58;;;;;;;55.85;34.85;;;;;;;;;;5056418;28;20033;-83
2021/11/03 08:02:24;;;;;;;49.90;32.90;;;;;;;;;;5073886;28;20029;-81
2021/11/03 08:04:58;;;;;;;137.45;77.57;;;;;;;;;;5056397;28;20029;-79
2021/11/03 08:07:24;;;;;;;81.63;45.27;;;;;;;;;;5083527;28;20043;-82
2021/11/03 08:09:50;;;;;;;56.75;33.55;;;;;;;;;;5075861;28;20259;-82
2021/11/03 08:12:18;;;;;;;67.43;40.78;;;;;;;;;;5093776;28;20095;-83
2021/11/03 08:15:05;;;;;;;73.93;43.67;;;;;;;;;;5094713;28;20057;-84
2021/11/03 08:17:32;;;;;;;58.10;34.50;;;;;;;;;;5093649;28;20039;-82
2021/11/03 08:20:04;;;;;;;43.17;27.52;;;;;;;;;;5094304;28;20077;-85
2021/11/03 08:22:32;;;;;;;44.05;25.90;;;;;;;;;;5083958;28;20463;-84
2021/11/03 08:31:05;;;;;;;;;;;;;;;;;;;;;
2021/11/03 08:33:47;;;;;;;;;;;;;;;;;;;;;
2021/11/03 08:39:33;;;;;;;22.85;14.20;;;;;;;;;;4933427;29;20122;-83
2021/11/03 08:42:50;;;;;;;;;;;;;;;;;;;;;
2021/11/03 08:45:43;;;;;;;;;;;;;;;;;;;;;
2021/11/03 08:51:57;;;;;;;26.55;15.80;;;;;;;;;;4993721;28;20445;-82
2021/11/03 09:07:22;;;;;;;;;;;;;;;;;;;;;
2021/11/03 09:10:11;;;;;;;;;;;;;;;;;;;;;
2021/11/03 09:12:40;;;;;;;20.50;15.57;;;;;;;;;;5044160;28;20039;-69
2021/11/03 09:15:07;;;;;;;21.65;12.75;;;;;;;;;;5062623;28;20078;-81
2021/11/03 09:17:33;;;;;;;19.90;13.23;;;;;;;;;;5067046;28;20024;-81
2021/11/03 09:19:59;;;;;;;15.30;10.90;;;;;;;;;;5065385;28;20024;-82
2021/11/03 09:22:25;;;;;;;15.55;10.48;;;;;;;;;;5066540;28;20119;-81
2021/11/03 09:24:56;;;;;;;13.50;10.50;;;;;;;;;;5058618;28;20838;-83
2021/11/03 09:27:22;;;;;;;13.90;9.95;;;;;;;;;;5064535;28;20044;-79
2021/11/03 09:30:19;;;;;;;48.45;36.13;;;;;;;;;;5057630;28;20029;-81
2021/11/03 09:32:40;;;;;;;17.58;12.57;;;;;;;;;;5049272;28;20071;-81
2021/11/03 09:35:07;;;;;;;18.02;12.18;;;;;;;;;;5059388;28;20476;-83
2021/11/03 09:37:43;;;;;;;;;;;;;;;;;;;;;
2021/11/03 09:40:20;;;;;;;14.60;10.77;;;;;;;;;;5069011;28;20012;-82
2021/11/03 09:42:49;;;;;;;15.55;11.30;;;;;;;;;;5072097;28;20051;-82
2021/11/03 09:45:28;;;;;;;14.43;11.75;;;;;;;;;;5079850;28;20034;-82
2021/11/03 09:53:59;;;;;;;16.98;11.13;;;;;;;;;;5070354;28;20031;-84
2021/11/03 09:56:57;;;;;;;15.15;11.48;;;;;;;;;;5086656;28;20036;-83
2021/11/03 09:59:42;;;;;;;17.35;14.70;;;;;;;;;;5031610;28;20466;-77
2021/11/03 10:02:11;;;;;;;20.02;14.60;;;;;;;;;;5071614;28;20571;-80
2021/11/03 10:05:05;;;;;;;;;;;;;;;;;;;;;
2021/11/03 10:10:52;;;;;;;;;;;;;;;;;;;;;
2021/11/03 10:19:37;;;;;;;17.15;11.20;;;;;;;;;;5009627;28;20038;-83
2021/11/03 10:28:52;;;;;;;;;;;;;;;;;;;;;
2021/11/03 10:31:37;;;;;;;54.65;42.60;;;;;;;;;;4900438;29;20040;-83
2021/11/03 10:34:23;;;;;;;22.02;15.30;;;;;;;;;;4958393;28;20058;-80
2021/11/03 10:37:08;;;;;;;14.63;11.38;;;;;;;;;;4943839;29;20039;-83
2021/11/03 10:39:53;;;;;;;23.77;17.00;;;;;;;;;;4938711;28;20525;-84
2021/11/03 10:58:40;;;;;;;12.82;10.63;;;;;;;;;;4913063;29;20036;-81
2021/11/03 11:01:44;;;;;;;;;;;;;;;;;;;;;
2021/11/03 11:04:34;;;;;;;24.13;17.35;;;;;;;;;;4873484;29;20134;-82
2021/11/03 11:16:12;;;;;;;17.58;11.63;;;;;;;;;;4774925;30;20031;-82
2021/11/03 11:18:38;;;;;;;;;;;;;;;;;;4812047;29;20047;-80
2021/11/03 11:21:13;;;;;;;13.82;10.35;;;;;;;;;;4868457;29;20011;-81
2021/11/03 11:23:46;;;;;;;17.38;12.00;;;;;;;;;;4977611;28;20030;-85
2021/11/03 11:26:31;;;;;;;14.32;10.82;;;;;;;;;;4992818;28;20113;-80
2021/11/03 11:29:15;;;;;;;14.80;10.73;;;;;;;;;;5083156;28;20016;-84
2021/11/03 11:32:05;;;;;;;16.67;11.20;;;;;;;;;;5075035;28;20032;-82
2021/11/03 11:34:46;;;;;;;14.90;10.82;;;;;;;;;;5085755;28;20552;-83
2021/11/03 11:37:32;;;;;;;15.90;12.27;;;;;;;;;;5087082;28;20020;-84
2021/11/03 11:40:17;;;;;;;34.63;25.50;;;;;;;;;;5098673;28;20501;-83
2021/11/03 11:42:50;;;;;;;41.58;29.75;;;;;;;;;;5091617;28;20541;-80
2021/11/03 11:45:33;;;;;;;;;;;;;;;;;;;;;
2021/11/03 11:48:29;;;;;;;;;;;;;;;;;;;;;
2021/11/03 11:54:37;;;;;;;41.65;34.33;;;;;;;;;;5043641;28;20081;-81
2021/11/03 11:57:12;;;;;;;22.95;17.33;;;;;;;;;;5093149;28;20021;-82
2021/11/03 12:00:08;;;;;;;;;;;;;;;;;;;;;
2021/11/03 12:02:57;;;;;;;21.50;18.25;;;;;;;;;;5073878;28;20039;-81
2021/11/03 12:09:09;;;;;;;79.95;61.58;;;;;;;;;;5051228;28;20108;-81
2021/11/03 12:12:00;;;;;;;46.60;33.60;;;;;;;;;;5060313;28;20085;-80
2021/11/03 12:14:45;;;;;;;28.08;20.52;;;;;;;;;;5093775;28;20107;-85
2021/11/03 12:17:30;;;;;;;31.23;23.23;;;;;;;;;;5060351;28;20466;-80
2021/11/03 12:19:57;;;;;;;28.88;22.90;;;;;;;;;;5087338;28;20796;-81
2021/11/03 12:22:26;;;;;;;38.42;28.77;;;;;;;;;;5094429;28;20036;-83
2021/11/03 12:25:09;;;;;;;59.10;39.75;;;;;;;;;;5087814;28;20044;-81
2021/11/03 12:31:03;;;;;;;30.10;23.52;;;;;;;;;;5011011;28;20022;-83
2021/11/03 12:33:59;;;;;;;;;;;;;;;;;;;;;
2021/11/03 12:36:25;;;;;;;28.92;22.27;;;;;;;;;;5064297;28;20476;-77
2021/11/03 12:38:53;;;;;;;32.00;23.27;;;;;;;;;;5073558;28;20388;-76
2021/11/03 12:41:21;;;;;;;28.83;20.88;;;;;;;;;;5107106;28;20518;-81
2021/11/03 12:43:57;;;;;;;33.70;25.75;;;;;;;;;;5074050;28;20063;-79
2021/11/03 12:46:23;;;;;;;26.92;19.90;;;;;;;;;;5059037;28;20045;-81
2021/11/03 12:48:54;;;;;;;19.65;15.18;;;;;;;;;;5064412;28;20022;-79
2021/11/03 12:51:32;;;;;;;19.15;15.77;;;;;;;;;;5094725;28;20016;-81
2021/11/03 12:54:07;;;;;;;20.65;16.33;;;;;;;;;;5091288;28;20031;-83
2021/11/03 12:56:37;;;;;;;23.05;18.95;;;;;;;;;;5092937;28;20085;-80
2021/11/03 12:59:05;;;;;;;29.70;22.30;;;;;;;;;;5094008;28;20020;-81
2021/11/03 13:01:40;;;;;;;24.23;17.05;;;;;;;;;;5074821;28;20371;-83
2021/11/03 13:04:15;;;;;;;25.15;19.67;;;;;;;;;;5094313;28;20099;-79
2021/11/03 13:07:00;;;;;;;21.08;16.38;;;;;;;;;;5093749;28;20077;-81
2021/11/03 13:09:32;;;;;;;22.15;17.33;;;;;;;;;;5093608;28;20039;-79
2021/11/03 13:12:01;;;;;;;22.00;15.15;;;;;;;;;;5102147;28;20024;-79
2021/11/03 13:14:30;;;;;;;18.45;14.85;;;;;;;;;;5067744;28;20486;-79
2021/11/03 13:16:58;;;;;;;18.63;13.75;;;;;;;;;;5073325;28;20399;-80
2021/11/03 13:19:26;;;;;;;17.27;13.52;;;;;;;;;;5089626;28;20028;-79
2021/11/03 13:21:55;;;;;;;23.13;20.38;;;;;;;;;;5093276;28;20031;-78
2021/11/03 13:24:25;;;;;;;22.48;17.45;;;;;;;;;;5092502;28;20033;-79
2021/11/03 13:26:51;;;;;;;18.55;13.80;;;;;;;;;;5093048;28;20023;-73
2021/11/03 13:29:32;;;;;;;36.25;27.60;;;;;;;;;;5093164;28;20016;-82
2021/11/03 13:32:17;;;;;;;18.23;14.07;;;;;;;;;;5093669;28;20103;-81
2021/11/03 13:34:43;;;;;;;;;;;;;;;;;;5077572;28;20031;-80
2021/11/03 13:37:22;;;;;;;23.45;18.17;;;;;;;;;;5075036;28;19908;-78
2021/11/03 13:40:00;;;;;;;21.80;15.10;;;;;;;;;;5091312;28;20024;-79
2021/11/03 13:42:47;;;;;;;43.13;37.00;;;;;;;;;;5094073;28;20096;-82
2021/11/03 13:45:21;;;;;;;32.92;26.55;;;;;;;;;;5092426;28;20617;-82
2021/11/03 13:47:59;;;;;;;23.10;17.73;;;;;;;;;;5072519;28;20074;-85
2021/11/03 13:50:45;;;;;;;25.17;17.83;;;;;;;;;;5093485;28;20471;-84
2021/11/03 13:53:18;;;;;;;25.98;20.20;;;;;;;;;;5091609;28;20486;-84
2021/11/03 13:56:13;;;;;;;;;;;;;;;;;;;;;
2021/11/03 13:59:13;;;;;;;;;;;;;;;;;;;;;
2021/11/03 14:01:33;;;;;;;16.50;11.90;;;;;;;;;;5085721;28;20043;-83
2021/11/03 14:04:30;;;;;;;20.48;15.95;;;;;;;;;;5073284;28;20104;-79
2021/11/03 14:07:10;;;;;;;21.55;19.17;;;;;;;;;;5071163;28;20032;-80
2021/11/03 14:09:49;;;;;;;22.33;17.42;;;;;;;;;;5080819;28;20028;-82
2021/11/03 14:12:26;;;;;;;25.75;20.75;;;;;;;;;;5072595;28;20418;-81
2021/11/03 14:15:23;;;;;;;;;;;;;;;;;;;;;
2021/11/03 14:18:08;;;;;;;27.90;21.60;;;;;;;;;;5072705;28;20028;-69
2021/11/03 14:20:44;;;;;;;27.95;24.20;;;;;;;;;;5072093;28;20444;-79
2021/11/03 14:23:13;;;;;;;32.55;25.23;;;;;;;;;;5072079;28;20089;-83
2021/11/03 14:25:50;;;;;;;;;;;;;;;;;;;;;
2021/11/03 14:28:20;;;;;;;31.27;24.67;;;;;;;;;;5071885;28;20016;-79
2021/11/03 14:33:42;;;;;;;38.72;29.90;;;;;;;;;;5072423;28;20112;-80
2021/11/03 14:36:10;;;;;;;34.25;26.15;;;;;;;;;;5072028;28;20032;-82
2021/11/03 14:38:37;;;;;;;42.42;34.67;;;;;;;;;;5072197;28;20048;-83
2021/11/03 14:41:05;;;;;;;45.72;35.20;;;;;;;;;;5072303;28;20107;-80
2021/11/03 14:43:32;;;;;;;58.75;48.90;;;;;;;;;;5054179;28;20105;-82
2021/11/03 14:46:04;;;;;;;48.55;41.05;;;;;;;;;;5071921;28;20043;-79
2021/11/03 14:48:32;;;;;;;52.95;45.97;;;;;;;;;;5072109;28;20025;-79
2021/11/03 14:50:58;;;;;;;66.80;52.30;;;;;;;;;;5085609;28;20089;-80
2021/11/03 14:53:26;;;;;;;59.55;44.40;;;;;;;;;;5094548;28;20039;-80
2021/11/03 14:55:53;;;;;;;50.25;38.00;;;;;;;;;;5078199;28;20559;-80
2021/11/03 14:58:29;;;;;;;43.10;33.33;;;;;;;;;;5096364;28;20445;-82
2021/11/03 15:00:57;;;;;;;44.92;34.85;;;;;;;;;;5096596;28;20364;-82
2021/11/03 15:03:31;;;;;;;39.92;31.23;;;;;;;;;;5096533;28;20028;-81
2021/11/03 15:05:58;;;;;;;45.17;36.40;;;;;;;;;;5096393;28;20020;-79
2021/11/03 15:08:34;;;;;;;41.72;33.63;;;;;;;;;;5095953;28;20401;-79
2021/11/03 15:11:04;;;;;;;48.88;36.50;;;;;;;;;;5096442;28;20023;-80
2021/11/03 15:13:33;;;;;;;64.95;45.00;;;;;;;;;;5096268;28;20375;-79
2021/11/03 15:16:03;;;;;;;82.90;58.88;;;;;;;;;;5096231;28;20028;-82
2021/11/03 15:18:40;;;;;;;103.93;77.18;;;;;;;;;;5095976;28;20464;-82
2021/11/03 15:21:07;;;;;;;88.07;64.03;;;;;;;;;;5096117;28;20032;-83
2021/11/03 15:23:33;;;;;;;123.93;94.40;;;;;;;;;;5095921;28;20051;-82
2021/11/03 15:26:02;;;;;;;90.03;67.35;;;;;;;;;;5095832;28;20103;-79
2021/11/03 15:28:28;;;;;;;82.18;64.03;;;;;;;;;;5095887;28;20055;-82
2021/11/03 15:30:59;;;;;;;82.38;66.15;;;;;;;;;;5089191;28;20453;-79
2021/11/03 15:33:35;;;;;;;68.35;54.47;;;;;;;;;;5075702;28;20104;-80
2021/11/03 15:36:03;;;;;;;53.47;44.13;;;;;;;;;;5075425;28;20059;-81
2021/11/03 15:38:31;;;;;;;61.22;47.20;;;;;;;;;;5075302;28;20494;-79
2021/11/03 15:41:01;;;;;;;58.95;46.10;;;;;;;;;;5075608;28;20024;-80
2021/11/03 15:43:28;;;;;;;75.78;58.15;;;;;;;;;;5075403;28;20430;-80
2021/11/03 15:46:15;;;;;;;65.00;53.20;;;;;;;;;;5057120;28;20052;-83
2021/11/03 15:49:20;;;;;;;;;;;;;;;;;;;;;
2021/11/03 15:51:46;;;;;;;;;;;;;;;;;;5076709;28;20028;-80
2021/11/03 15:54:13;;;;;;;62.80;49.90;;;;;;;;;;5076146;28;20340;-81
2021/11/03 15:56:40;;;;;;;61.33;50.80;;;;;;;;;;5076140;28;20048;-81
2021/11/03 15:59:21;;;;;;;;;;;;;;;;;;;;;
2021/11/03 16:02:27;;;;;;;;;;;;;;;;;;;;;
2021/11/03 16:05:24;;;;;;;;;;;;;;;;;;;;;
2021/11/03 16:14:13;;;;;;;;;;;;;;;;;;;;;
2021/11/03 16:16:44;;;;;;;48.80;37.95;;;;;;;;;;5076053;28;20017;-85
2021/11/03 16:19:14;;;;;;;61.95;53.45;;;;;;;;;;5075850;28;20039;-85
2021/11/03 16:34:07;;;;;;;101.43;90.38;;;;;;;;;;4971584;28;20577;-84
2021/11/03 16:36:45;;;;;;;87.35;75.97;;;;;;;;;;5038105;28;20119;-86
2021/11/03 16:39:30;;;;;;;76.90;66.93;;;;;;;;;;5095396;28;20111;-84
2021/11/03 16:42:15;;;;;;;77.55;66.53;;;;;;;;;;5076491;28;20441;-82
2021/11/03 16:44:42;;;;;;;87.60;76.53;;;;;;;;;;5095254;28;20023;-83
2021/11/03 16:47:20;;;;;;;104.88;88.32;;;;;;;;;;5095123;28;20067;-84
2021/11/03 16:49:46;;;;;;;126.47;109.65;;;;;;;;;;5095681;28;20028;-80
2021/11/03 16:52:14;;;;;;;175.63;146.63;;;;;;;;;;5076438;28;20024;-83
2021/11/03 16:54:43;;;;;;;137.00;115.03;;;;;;;;;;5094932;28;20027;-84
2021/11/03 16:57:11;;;;;;;95.97;79.95;;;;;;;;;;5076765;28;20024;-84
2021/11/03 16:59:38;;;;;;;104.85;86.25;;;;;;;;;;5076851;28;20020;-82
2021/11/03 17:02:05;;;;;;;99.05;81.45;;;;;;;;;;5094882;28;20421;-84
2021/11/03 17:04:31;;;;;;;117.20;98.82;;;;;;;;;;5094908;28;20016;-84
2021/11/03 17:07:03;;;;;;;107.28;88.57;;;;;;;;;;5095041;28;20027;-84
2021/11/03 17:09:35;;;;;;;98.00;78.80;;;;;;;;;;5094875;28;20072;-84
2021/11/03 17:12:04;;;;;;;96.75;79.80;;;;;;;;;;5095107;28;20016;-84
2021/11/03 17:14:39;;;;;;;91.50;75.82;;;;;;;;;;5076908;28;20110;-81
2021/11/03 17:17:18;;;;;;;;;;;;;;;;;;;;;
2021/11/03 17:19:47;;;;;;;73.65;61.95;;;;;;;;;;5094639;28;20032;-82
2021/11/03 17:32:11;;;;;;;;;;;;;;;;;;;;;
2021/11/03 17:38:34;;;;;;;46.17;36.42;;;;;;;;;;4931586;29;20404;-80
2021/11/03 17:40:59;;;;;;;39.13;30.17;;;;;;;;;;4894484;29;20560;-79
2021/11/03 17:43:30;;;;;;;34.85;30.85;;;;;;;;;;4881594;29;20816;-80
2021/11/03 17:45:57;;;;;;;35.60;29.67;;;;;;;;;;5006707;28;20040;-82
2021/11/03 17:48:48;;;;;;;34.78;30.98;;;;;;;;;;5073073;28;20434;-83
2021/11/03 17:51:14;;;;;;;41.58;33.63;;;;;;;;;;5072823;28;20017;-80
2021/11/03 17:53:48;;;;;;;35.95;29.17;;;;;;;;;;5073045;28;20078;-81
2021/11/03 17:56:40;;;;;;;41.13;32.43;;;;;;;;;;5054736;28;20037;-80
2021/11/03 17:59:07;;;;;;;64.13;54.47;;;;;;;;;;5072799;28;20456;-80
2021/11/03 18:01:34;;;;;;;58.60;49.97;;;;;;;;;;5072799;28;20032;-85
2021/11/03 18:04:00;;;;;;;107.55;79.45;;;;;;;;;;5054698;28;20051;-82
2021/11/03 18:06:46;;;;;;;60.15;49.65;;;;;;;;;;5072531;28;20048;-83
2021/11/03 18:09:12;;;;;;;115.45;89.55;;;;;;;;;;5072595;28;20021;-83
2021/11/03 18:11:43;;;;;;;58.60;47.92;;;;;;;;;;5085906;28;20487;-82